createdAt,value
2022-10-07T00:40:49.940Z,10.63
2022-10-07T02:47:08.299Z,16.19
2022-10-07T02:48:20.636Z,13.94
2022-10-07T02:49:26.990Z,12.25
2022-10-07T02:50:38.308Z,16.31
2022-10-07T02:51:57.095Z,14.75
2022-10-07T02:53:04.236Z,12.94
2022-10-07T02:56:03.671Z,13.94
2022-10-07T02:56:49.469Z,15.31
2022-10-07T02:58:19.173Z,15.56
2022-10-07T03:01:42.259Z,20.50
2022-10-07T03:02:44.935Z,17.87
2022-10-07T03:03:31.642Z,18.06
2022-10-07T03:04:38.953Z,19.56
2022-10-07T03:06:11.957Z,18.06
2022-10-07T03:07:07.616Z,14.25
2022-10-07T03:08:07.116Z,16.19
2022-10-07T03:11:37.635Z,15.19
2022-10-07T03:50:19.554Z,11.44
2022-10-07T03:51:15.628Z,11.00
2022-10-07T03:52:25.493Z,11.56
2022-10-07T03:53:31.264Z,8.06
2022-10-07T03:54:41.561Z,11.63
2022-10-07T03:56:09.665Z,11.31
2022-10-07T03:57:10.477Z,12.69
2022-10-07T03:58:13.378Z,10.19
2022-10-07T03:59:35.772Z,12.88
2022-10-07T04:05:30.533Z,12.50
2022-10-07T04:06:28.763Z,12.37
2022-10-07T04:08:57.739Z,11.12
2022-10-07T04:31:13.157Z,14.25
2022-10-07T06:22:39.796Z,15.38
2022-10-07T06:40:15.082Z,7.12
2022-10-07T06:42:47.814Z,9.50
2022-10-07T06:43:56.810Z,11.12
2022-10-07T06:45:10.269Z,9.69
2022-10-07T06:49:20.588Z,12.37
2022-10-07T06:51:55.088Z,13.25
2022-10-07T06:54:12.366Z,14.50
2022-10-07T06:55:20.770Z,11.94
2022-10-07T06:56:22.033Z,12.50
2022-10-07T06:56:32.240Z,12.81
2022-10-07T06:57:56.119Z,10.69
2022-10-07T06:58:45.252Z,12.06
2022-10-07T06:59:57.513Z,9.75
2022-10-07T07:01:18.766Z,11.06
2022-10-07T07:02:11.585Z,10.31
2022-10-07T07:03:18.373Z,9.63
2022-10-07T07:04:23.903Z,9.31
2022-10-07T07:05:35.535Z,10.94
2022-10-07T07:09:15.527Z,12.88
2022-10-07T07:10:24.046Z,10.13
2022-10-07T07:12:16.438Z,9.25
2022-10-07T07:30:18.045Z,16.19
2022-10-07T07:31:23.402Z,14.13
2022-10-07T07:32:28.723Z,10.31
2022-10-07T07:33:34.693Z,13.13
2022-10-07T07:34:40.022Z,9.00
2022-10-07T07:35:45.460Z,7.44
2022-10-07T07:36:51.443Z,7.50
2022-10-07T07:37:56.952Z,4.44
2022-10-07T07:39:05.191Z,5.62
2022-10-07T07:40:11.043Z,5.12
2022-10-07T07:41:16.543Z,5.62
2022-10-07T07:42:21.828Z,5.69
2022-10-07T07:43:27.117Z,6.87
2022-10-07T07:44:34.763Z,3.87
2022-10-07T07:45:38.947Z,4.31
2022-10-07T07:46:54.183Z,4.75
2022-10-07T07:47:53.158Z,3.37
2022-10-07T07:49:00.056Z,3.87
2022-10-07T07:50:07.754Z,4.25
2022-10-07T08:34:11.608Z,1.56
2022-10-07T08:35:21.198Z,2.06
2022-10-07T08:36:29.920Z,2.06
2022-10-07T08:37:51.576Z,2.19
2022-10-07T08:39:08.977Z,1.81
2022-10-07T08:40:32.317Z,10.06
2022-10-07T08:41:35.111Z,3.75
2022-10-07T08:42:42.876Z,3.00
2022-10-07T08:43:55.707Z,2.25
2022-10-07T08:44:59.724Z,6.69
2022-10-07T08:46:07.390Z,5.19
2022-10-07T08:47:33.731Z,6.19
2022-10-07T08:48:46.156Z,4.62
2022-10-07T08:50:07.328Z,9.19
2022-10-07T10:02:36.697Z,4.56
2022-10-07T10:26:53.948Z,1.06
2022-10-07T10:28:10.092Z,1.12
2022-10-07T10:29:35.083Z,1.56
2022-10-07T10:30:43.555Z,2.12
2022-10-07T10:32:05.629Z,0.50
2022-10-07T10:33:38.209Z,3.75
2022-10-07T10:35:17.849Z,3.12
2022-10-07T10:36:24.649Z,2.19
2022-10-07T10:37:48.800Z,6.06
2022-10-07T10:39:55.044Z,2.37
2022-10-07T10:40:37.337Z,3.00
2022-10-07T10:41:46.850Z,1.06
2022-10-07T10:43:13.278Z,1.62
2022-10-07T10:44:57.672Z,3.06
2022-10-07T10:46:08.865Z,2.81
2022-10-07T11:18:57.079Z,1.31
2022-10-07T11:20:28.238Z,1.06
2022-10-07T11:21:41.947Z,0.56
2022-10-07T13:12:09.883Z,2.19
2022-10-07T13:15:08.870Z,3.19
2022-10-07T14:12:49.081Z,5.75
2022-10-07T15:28:31.751Z,21.94
2022-10-07T16:26:21.496Z,21.31
2022-10-07T16:27:27.065Z,20.56
2022-10-07T16:28:38.585Z,25.31
2022-10-07T16:29:45.620Z,25.94
2022-10-07T16:30:52.383Z,25.94
2022-10-07T17:17:25.785Z,30.12
2022-10-07T17:18:42.564Z,20.33
2022-10-07T17:19:51.170Z,34.60
2022-10-07T17:21:00.882Z,33.13
2022-10-07T17:22:06.749Z,33.60
2022-10-07T17:23:12.432Z,31.31
2022-10-07T17:24:19.475Z,46.81
2022-10-07T17:25:25.318Z,33.93
2022-10-07T17:26:30.882Z,50.38
2022-10-07T17:27:35.244Z,32.80
2022-10-07T17:28:41.118Z,35.94
2022-10-07T17:29:46.596Z,34.13
2022-10-07T17:30:51.518Z,26.50
2022-10-07T17:31:56.939Z,29.40
2022-10-07T17:33:01.786Z,26.00
2022-10-07T17:34:10.120Z,28.62
2022-10-07T17:35:14.715Z,17.73
2022-10-07T17:36:20.245Z,27.40
2022-10-07T17:37:25.700Z,25.27
2022-10-07T17:38:30.076Z,27.33
2022-10-07T17:39:35.556Z,23.87
2022-10-07T17:40:41.180Z,18.19
2022-10-07T17:41:46.252Z,31.07
2022-10-07T17:42:51.307Z,30.88
2022-10-07T17:43:58.183Z,32.19
2022-10-07T17:45:03.887Z,21.07
2022-10-07T17:46:12.900Z,22.75
2022-10-07T17:47:19.136Z,28.56
2022-10-07T17:48:24.735Z,28.94
2022-10-07T17:49:30.816Z,36.53
2022-10-07T17:50:36.563Z,24.37
2022-10-07T17:51:42.769Z,31.56
2022-10-07T17:52:49.600Z,31.06
2022-10-07T17:53:56.708Z,33.47
2022-10-07T17:55:02.288Z,30.06
2022-10-07T17:56:08.540Z,33.38
2022-10-07T17:57:14.047Z,34.06
2022-10-07T17:58:19.727Z,34.81
2022-10-07T17:59:24.046Z,33.06
2022-10-07T18:00:29.549Z,35.13
2022-10-07T18:01:35.496Z,35.63
2022-10-07T18:02:57.626Z,34.33
2022-10-07T18:03:59.225Z,35.06
2022-10-07T18:05:05.237Z,42.00
2022-10-07T18:06:12.152Z,38.69
2022-10-07T18:07:16.518Z,35.06
2022-10-07T18:08:22.337Z,33.73
2022-10-07T18:09:30.947Z,33.88
2022-10-07T18:10:38.019Z,35.33
2022-10-07T18:11:43.596Z,42.80
2022-10-07T18:12:50.492Z,34.94
2022-10-07T18:13:55.959Z,43.53
2022-10-07T18:15:00.348Z,37.56
2022-10-07T18:16:10.098Z,34.00
2022-10-07T18:17:15.532Z,33.19
2022-10-07T18:18:21.040Z,36.00
2022-10-07T18:19:28.171Z,33.60
2022-10-07T18:20:38.228Z,37.69
2022-10-07T18:21:43.861Z,34.73
2022-10-07T18:22:54.013Z,39.50
2022-10-07T18:24:00.211Z,33.44
2022-10-07T18:25:15.509Z,32.20
2022-10-07T18:26:21.089Z,41.25
2022-10-07T18:27:26.809Z,39.19
2022-10-07T18:28:34.135Z,35.56
2022-10-07T18:29:38.943Z,39.47
2022-10-07T18:30:44.667Z,44.50
2022-10-07T18:31:48.949Z,38.00
2022-10-07T18:32:57.215Z,41.93
2022-10-07T18:34:01.521Z,40.00
2022-10-07T18:35:07.214Z,36.67
2022-10-07T18:36:15.580Z,31.53
2022-10-07T18:37:21.382Z,39.40
2022-10-07T18:38:37.668Z,36.93
2022-10-07T18:39:43.280Z,33.31
2022-10-07T18:40:48.637Z,34.00
2022-10-07T18:41:54.345Z,57.87
2022-10-07T18:43:00.058Z,45.81
2022-10-07T18:44:09.193Z,32.93
2022-10-07T18:45:13.731Z,50.94
2022-10-07T18:46:21.214Z,44.47
2022-10-07T18:47:26.723Z,40.94
2022-10-07T18:48:32.958Z,36.94
2022-10-07T18:49:38.663Z,36.60
2022-10-07T18:50:51.792Z,33.53
2022-10-07T18:51:56.094Z,35.25
2022-10-07T18:53:01.536Z,35.67
2022-10-07T18:54:05.862Z,33.80
2022-10-07T18:55:11.447Z,33.73
2022-10-07T18:56:20.112Z,30.31
2022-10-07T18:57:25.671Z,33.13
2022-10-07T18:58:35.773Z,32.75
2022-10-07T18:59:41.371Z,33.33
2022-10-07T19:00:46.886Z,33.56
2022-10-07T19:01:51.922Z,32.44
2022-10-07T19:02:59.793Z,32.81
2022-10-07T19:04:06.459Z,33.56
2022-10-07T19:05:11.286Z,33.88
2022-10-07T19:06:20.873Z,32.81
2022-10-07T19:07:28.901Z,32.00
2022-10-07T19:08:34.551Z,34.06
2022-10-07T19:09:39.334Z,30.56
2022-10-07T19:10:46.495Z,32.31
2022-10-07T19:11:51.919Z,32.27
2022-10-07T19:12:57.389Z,31.31
2022-10-07T19:14:03.119Z,31.60
2022-10-07T19:15:08.955Z,32.93
2022-10-07T19:16:15.199Z,34.00
2022-10-07T19:17:19.414Z,34.27
2022-10-07T19:18:24.855Z,32.75
2022-10-07T19:19:31.335Z,33.81
2022-10-07T19:20:35.571Z,31.19
2022-10-07T19:21:41.070Z,32.69
2022-10-07T19:22:46.513Z,33.06
2022-10-07T19:23:54.479Z,32.81
2022-10-07T19:24:59.431Z,31.00
2022-10-07T19:26:05.191Z,32.25
2022-10-07T19:27:09.675Z,31.50
2022-10-07T19:28:15.205Z,31.87
2022-10-07T19:29:20.191Z,31.37
2022-10-07T19:30:25.689Z,30.25
2022-10-07T19:31:33.536Z,28.80
2022-10-07T19:32:41.221Z,28.67
2022-10-07T19:33:47.938Z,29.37
2022-10-07T19:34:53.537Z,25.33
2022-10-07T19:35:58.937Z,32.19
2022-10-07T19:37:04.583Z,34.00
2022-10-07T19:38:09.018Z,31.73
2022-10-07T19:39:16.582Z,32.94
2022-10-07T19:40:23.512Z,31.75
2022-10-07T19:41:32.258Z,34.50
2022-10-07T19:42:37.766Z,33.81
2022-10-07T19:43:44.397Z,32.06
2022-10-07T19:44:49.865Z,32.38
2022-10-07T19:45:56.887Z,30.88
2022-10-07T19:47:02.359Z,33.63
2022-10-07T19:48:14.453Z,31.07
2022-10-07T19:49:19.585Z,31.75
2022-10-07T19:50:25.120Z,33.00
2022-10-07T19:51:32.435Z,34.00
2022-10-07T19:52:37.734Z,33.80
2022-10-07T19:53:47.003Z,29.44
2022-10-07T19:54:51.797Z,31.33
2022-10-07T19:55:57.340Z,30.81
2022-10-07T19:57:04.908Z,30.87
2022-10-07T19:58:12.722Z,32.60
2022-10-07T19:59:18.396Z,31.13
2022-10-07T20:00:26.999Z,31.06
2022-10-07T20:01:35.107Z,32.00
2022-10-07T20:02:40.242Z,31.62
2022-10-07T20:03:45.885Z,29.60
2022-10-07T20:04:51.313Z,30.88
2022-10-07T20:05:58.971Z,31.25
2022-10-07T20:07:04.473Z,29.81
2022-10-07T20:08:10.357Z,29.93
2022-10-07T20:09:18.590Z,30.13
2022-10-07T20:10:26.211Z,29.27
2022-10-07T20:11:31.707Z,30.25
2022-10-07T20:12:36.041Z,30.07
2022-10-07T20:13:41.691Z,31.06
2022-10-07T20:14:45.935Z,31.25
2022-10-07T20:15:51.421Z,30.81
2022-10-07T20:16:56.997Z,31.31
2022-10-07T20:18:01.295Z,30.69
2022-10-07T20:19:09.904Z,31.44
2022-10-07T20:20:15.577Z,31.19
2022-10-07T20:21:22.038Z,30.75
2022-10-07T20:22:27.636Z,32.13
2022-10-07T20:23:35.216Z,29.69
2022-10-07T20:24:40.153Z,32.50
2022-10-07T20:25:46.088Z,32.25
2022-10-07T20:26:53.202Z,31.67
2022-10-07T20:27:59.154Z,30.44
2022-10-07T20:29:07.155Z,32.88
2022-10-07T20:30:17.570Z,30.88
2022-10-07T20:31:23.205Z,29.87
2022-10-07T20:32:32.602Z,30.81
2022-10-07T20:33:43.832Z,31.80
2022-10-07T20:34:48.733Z,34.94
2022-10-07T20:35:53.287Z,31.81
2022-10-07T20:36:59.512Z,34.63
2022-10-07T20:38:04.214Z,34.31
2022-10-07T20:39:18.918Z,19.19
2022-10-07T20:40:24.690Z,44.27
2022-10-07T20:41:31.060Z,29.20
2022-10-07T20:42:36.718Z,28.87
2022-10-07T20:43:42.471Z,26.50
2022-10-07T20:44:49.632Z,29.80
2022-10-07T20:45:58.311Z,30.88
2022-10-07T20:47:03.720Z,27.00
2022-10-07T20:48:08.220Z,24.75
2022-10-07T20:49:14.627Z,34.31
2022-10-07T20:50:23.137Z,38.75
2022-10-07T20:51:27.750Z,29.69
2022-10-07T20:52:37.758Z,31.37
2022-10-07T20:53:47.089Z,23.87
2022-10-07T20:54:53.752Z,24.94
2022-10-07T20:56:04.232Z,23.44
2022-10-07T20:57:12.975Z,25.81
2022-10-07T20:58:18.875Z,24.00
2022-10-07T20:59:25.828Z,21.62
2022-10-07T21:00:31.797Z,21.19
2022-10-07T21:01:40.014Z,18.94
2022-10-07T21:02:46.141Z,18.37
2022-10-07T21:03:56.625Z,17.19
2022-10-07T21:05:00.367Z,17.94
2022-10-07T21:06:08.702Z,31.31
2022-10-07T21:07:14.783Z,22.67
2022-10-07T21:08:20.527Z,28.75
2022-10-07T21:09:29.127Z,27.56
2022-10-07T21:10:34.821Z,31.25
2022-10-07T21:11:40.682Z,22.87
2022-10-07T21:12:46.954Z,21.81
2022-10-07T21:13:52.046Z,20.19
2022-10-07T21:14:57.469Z,17.25
2022-10-07T21:16:06.047Z,20.81
2022-10-07T21:17:13.126Z,24.56
2022-10-07T21:18:17.410Z,27.25
2022-10-07T21:19:22.898Z,27.69
2022-10-07T21:20:29.070Z,29.06
2022-10-07T21:21:34.251Z,28.27
2022-10-07T21:22:40.321Z,34.25
2022-10-07T21:23:47.655Z,26.19
2022-10-07T21:24:53.999Z,28.69
2022-10-07T21:26:01.621Z,27.40
2022-10-07T21:27:10.600Z,29.25
2022-10-07T21:28:19.576Z,28.38
2022-10-07T21:29:22.697Z,26.00
2022-10-07T21:30:27.811Z,21.81
2022-10-07T21:31:33.603Z,29.12
2022-10-07T21:32:39.411Z,20.50
2022-10-07T21:33:47.462Z,23.62
2022-10-07T21:34:53.610Z,22.56
2022-10-07T21:36:20.962Z,24.75
2022-10-07T21:37:11.215Z,26.19
2022-10-07T21:38:19.712Z,28.62
2022-10-07T21:39:24.985Z,28.12
2022-10-07T21:40:30.707Z,29.31
2022-10-07T21:41:37.389Z,24.25
2022-10-07T21:42:42.620Z,24.06
2022-10-07T21:43:53.079Z,29.81
2022-10-07T21:44:57.549Z,27.44
2022-10-07T21:46:03.472Z,26.94
2022-10-07T21:47:09.552Z,23.06
2022-10-07T21:48:15.563Z,20.81
2022-10-07T21:49:20.831Z,20.94
2022-10-07T21:50:27.136Z,21.31
2022-10-07T21:51:33.140Z,26.31
2022-10-07T21:52:39.316Z,21.25
2022-10-07T21:53:49.721Z,21.27
2022-10-07T21:54:54.988Z,10.31
2022-10-07T21:56:06.643Z,17.62
2022-10-07T21:57:13.094Z,13.19
2022-10-07T21:58:21.088Z,17.94
2022-10-07T21:59:27.337Z,15.38
2022-10-07T22:00:33.219Z,11.88
2022-10-07T22:01:37.883Z,16.19
2022-10-07T22:02:46.178Z,24.12
2022-10-07T22:04:01.241Z,15.75
2022-10-07T22:05:07.647Z,17.25
2022-10-07T22:06:18.075Z,12.00
2022-10-07T22:07:23.963Z,13.31
2022-10-07T22:08:30.082Z,18.69
2022-10-07T22:09:36.251Z,15.69
2022-10-07T22:10:41.455Z,13.73
2022-10-07T22:11:49.319Z,14.19
2022-10-07T22:12:54.503Z,14.19
2022-10-07T22:13:59.463Z,14.50
2022-10-07T22:15:05.648Z,18.20
2022-10-07T22:16:17.414Z,17.75
2022-10-07T22:17:22.936Z,14.25
2022-10-07T22:18:27.691Z,11.25
2022-10-07T22:19:33.385Z,16.19
2022-10-07T22:20:39.940Z,12.06
2022-10-07T22:21:45.159Z,13.69
2022-10-07T22:22:50.417Z,12.37
2022-10-07T22:23:58.237Z,9.31
2022-10-07T22:25:04.459Z,12.94
2022-10-07T22:26:12.935Z,14.31
2022-10-07T22:27:17.607Z,11.38
2022-10-07T22:28:23.805Z,11.31
2022-10-07T22:29:43.254Z,24.12
2022-10-07T22:30:39.165Z,16.75
2022-10-07T22:31:45.402Z,15.81
2022-10-07T22:32:51.371Z,10.75
2022-10-07T22:34:03.775Z,9.06
2022-10-07T22:35:10.195Z,16.56
2022-10-07T22:36:15.629Z,13.81
2022-10-07T22:37:22.224Z,12.94
2022-10-07T22:38:30.178Z,15.50
2022-10-07T22:39:36.764Z,14.25
2022-10-07T22:40:43.485Z,12.06
2022-10-07T22:41:51.250Z,11.44
2022-10-07T22:42:56.830Z,15.38
2022-10-07T22:44:03.437Z,13.38
2022-10-07T22:45:09.486Z,18.50
2022-10-07T22:46:17.760Z,13.56
2022-10-07T22:47:25.465Z,16.06
2022-10-07T22:48:30.745Z,14.19
2022-10-07T22:49:36.836Z,13.38
2022-10-07T22:50:42.129Z,14.69
2022-10-07T22:51:50.325Z,17.56
2022-10-07T22:52:55.873Z,17.69
2022-10-07T22:54:01.704Z,15.44
2022-10-07T22:55:07.814Z,14.69
2022-10-07T22:56:15.953Z,18.00
2022-10-07T22:57:21.873Z,12.56
2022-10-07T22:58:27.721Z,13.13
2022-10-07T22:59:32.846Z,16.37
2022-10-07T23:00:38.032Z,19.00
2022-10-07T23:01:44.591Z,14.25
2022-10-07T23:02:52.215Z,27.37
2022-10-07T23:03:58.426Z,29.19
2022-10-07T23:05:04.360Z,32.60
2022-10-07T23:06:12.429Z,28.62
2022-10-07T23:07:17.333Z,17.12
2022-10-07T23:08:23.284Z,17.62
2022-10-07T23:09:28.973Z,23.31
2022-10-07T23:10:37.194Z,18.37
2022-10-07T23:11:43.016Z,17.12
2022-10-07T23:12:49.068Z,22.94
2022-10-07T23:13:55.813Z,22.37
2022-10-07T23:15:00.518Z,31.62
2022-10-07T23:16:08.439Z,29.00
2022-10-07T23:17:14.732Z,11.94
2022-10-07T23:18:22.856Z,14.63
2022-10-07T23:19:31.926Z,21.44
2022-10-07T23:20:38.846Z,25.33
2022-10-07T23:21:47.531Z,19.00
2022-10-07T23:22:56.328Z,20.56
2022-10-07T23:24:07.423Z,23.00
2022-10-07T23:25:09.911Z,16.56
2022-10-07T23:26:19.271Z,35.94
2022-10-07T23:27:25.628Z,34.93
2022-10-07T23:28:30.432Z,73.37
2022-10-07T23:29:35.655Z,23.12
2022-10-07T23:30:41.754Z,27.25
2022-10-07T23:31:49.821Z,24.56
2022-10-07T23:32:55.734Z,23.50
2022-10-07T23:34:01.995Z,65.50
2022-10-07T23:35:09.193Z,45.20
2022-10-07T23:36:17.335Z,21.37
2022-10-07T23:37:21.957Z,49.06
2022-10-07T23:38:28.873Z,45.67
2022-10-07T23:39:35.487Z,34.80
2022-10-07T23:40:42.984Z,23.31
2022-10-07T23:41:48.871Z,32.69
2022-10-07T23:42:55.177Z,34.33
2022-10-07T23:44:03.057Z,23.06
2022-10-07T23:45:08.769Z,27.00
2022-10-07T23:46:15.208Z,28.12
2022-10-07T23:47:21.435Z,29.12
2022-10-07T23:48:29.926Z,24.87
2022-10-07T23:49:36.349Z,22.69
2022-10-07T23:50:52.155Z,33.13
2022-10-07T23:51:57.623Z,187.75
2022-10-07T23:53:02.581Z,146.25
2022-10-07T23:54:10.062Z,117.81
2022-10-07T23:55:16.680Z,80.40
2022-10-07T23:56:23.327Z,61.50
2022-10-07T23:57:29.882Z,38.53
2022-10-07T23:58:36.856Z,29.31
2022-10-07T23:59:44.337Z,74.31
